createdAt,value
2023-02-19T00:01:55.117Z,100962.00
2023-02-19T00:11:55.133Z,100952.00
2023-02-19T00:21:55.161Z,100948.00
2023-02-19T00:31:55.286Z,100944.00
2023-02-19T00:41:55.614Z,100934.00
2023-02-19T00:51:56.218Z,100926.00
2023-02-19T01:01:56.435Z,100922.00
2023-02-19T01:11:57.309Z,100918.00
2023-02-19T01:21:57.275Z,100920.00
2023-02-19T01:32:00.465Z,100917.00
2023-02-19T01:42:00.258Z,100913.00
2023-02-19T01:52:00.298Z,100907.00
2023-02-19T02:02:00.330Z,100903.00
2023-02-19T02:12:00.261Z,100907.00
2023-02-19T02:22:00.937Z,100907.00
2023-02-19T02:32:01.403Z,100909.00
2023-02-19T02:42:25.705Z,100907.00
2023-02-19T02:52:44.905Z,100905.00
2023-02-19T03:02:45.429Z,100911.00
2023-02-19T03:13:03.926Z,100917.00
2023-02-19T03:23:04.374Z,100922.00
2023-02-19T03:33:07.135Z,100932.00
2023-02-19T03:43:09.982Z,100944.00
2023-02-19T03:53:10.632Z,100950.00
2023-02-19T04:03:10.823Z,100952.00
2023-02-19T04:13:11.453Z,100965.00
2023-02-19T04:23:11.502Z,100979.00
2023-02-19T04:33:11.492Z,100981.00
2023-02-19T04:43:11.550Z,100989.00
2023-02-19T04:53:11.764Z,101003.00
2023-02-19T05:03:11.469Z,101012.00
2023-02-19T05:13:11.510Z,101020.00
2023-02-19T05:23:11.519Z,101034.00
2023-02-19T05:33:13.280Z,101058.00
2023-02-19T05:43:13.508Z,101074.00
2023-02-19T05:53:13.521Z,101082.00
2023-02-19T06:03:13.570Z,101092.00
2023-02-19T06:13:13.580Z,101097.00
2023-02-19T06:23:13.584Z,101109.00
2023-02-19T06:33:13.656Z,101113.00
2023-02-19T06:43:13.623Z,101123.00
2023-02-19T06:53:13.598Z,101139.00
2023-02-19T07:03:13.730Z,101154.00
2023-02-19T07:13:13.662Z,101166.00
2023-02-19T07:23:13.655Z,101182.00
2023-02-19T07:33:13.737Z,101201.00
2023-02-19T07:43:13.674Z,101221.00
2023-02-19T07:53:19.707Z,101238.00
2023-02-19T08:03:19.820Z,101258.00
2023-02-19T08:13:20.026Z,101268.00
2023-02-19T08:23:20.670Z,101280.00
2023-02-19T08:33:20.910Z,101295.00
2023-02-19T08:43:20.768Z,101305.00
2023-02-19T08:53:20.780Z,101316.00
2023-02-19T09:03:20.798Z,101324.00
2023-02-19T09:13:20.804Z,101326.00
2023-02-19T09:23:20.832Z,101335.00
2023-02-19T09:33:23.940Z,101349.00
2023-02-19T09:43:23.932Z,101359.00
2023-02-19T09:53:23.846Z,101363.00
2023-02-19T10:03:25.101Z,101373.00
2023-02-19T10:13:24.942Z,101390.00
2023-02-19T10:23:24.901Z,101418.00
2023-02-19T10:33:24.990Z,101429.00
2023-02-19T10:43:26.950Z,101453.00
2023-02-19T10:53:28.822Z,101469.00
2023-02-19T11:03:28.948Z,101478.00
2023-02-19T11:13:30.591Z,101488.00
2023-02-19T11:23:31.018Z,101488.00
2023-02-19T11:33:31.110Z,101494.00
2023-02-19T11:43:31.038Z,101486.00
2023-02-19T11:53:31.709Z,101482.00
2023-02-19T12:03:32.163Z,101484.00
2023-02-19T12:13:32.131Z,101476.00
2023-02-19T12:23:32.051Z,101478.00
2023-02-19T12:33:32.197Z,101488.00
2023-02-19T12:43:32.141Z,101492.00
2023-02-19T12:53:32.107Z,101498.00
2023-02-19T13:03:32.103Z,101502.00
2023-02-19T13:13:32.235Z,101506.00
2023-02-19T13:23:50.513Z,101508.00
2023-02-19T13:33:50.152Z,101504.00
2023-02-19T13:43:50.211Z,101506.00
2023-02-19T13:53:51.274Z,101518.00
2023-02-19T14:03:51.687Z,101525.00
2023-02-19T14:13:52.338Z,101543.00
2023-02-19T14:23:52.231Z,101553.00
2023-02-19T14:33:52.216Z,101565.00
2023-02-19T14:43:52.298Z,101577.00
2023-02-19T14:53:52.270Z,101581.00
2023-02-19T15:03:52.304Z,101585.00
2023-02-19T15:13:52.334Z,101577.00
2023-02-19T15:23:52.279Z,101557.00
2023-02-19T15:33:52.323Z,101543.00
2023-02-19T15:43:53.585Z,101533.00
2023-02-19T15:53:53.313Z,101519.00
2023-02-19T16:03:53.714Z,101527.00
2023-02-19T16:13:53.352Z,101539.00
2023-02-19T16:23:54.538Z,101551.00
2023-02-19T16:33:54.469Z,101563.00
2023-02-19T16:43:54.367Z,101579.00
2023-02-19T16:53:54.486Z,101589.00
2023-02-19T17:03:54.505Z,101609.00
2023-02-19T17:13:54.452Z,101636.00
2023-02-19T17:23:55.400Z,101661.00
2023-02-19T17:33:55.446Z,101683.00
2023-02-19T17:43:55.489Z,101683.00
2023-02-19T17:53:55.954Z,101687.00
2023-02-19T18:03:56.539Z,101699.00
2023-02-19T18:13:56.603Z,101708.00
2023-02-19T18:23:56.535Z,101708.00
2023-02-19T18:33:56.560Z,101716.00
2023-02-19T18:43:56.555Z,101718.00
2023-02-19T18:53:57.968Z,101728.00
2023-02-19T19:03:58.535Z,101738.00
2023-02-19T19:13:58.593Z,101746.00
2023-02-19T19:23:58.657Z,101755.00
2023-02-19T19:33:58.593Z,101769.00
2023-02-19T19:43:58.703Z,101771.00
2023-02-19T19:53:58.691Z,101763.00
2023-02-19T20:03:58.638Z,101763.00
2023-02-19T20:13:58.664Z,101777.00
2023-02-19T20:23:58.719Z,101783.00
2023-02-19T20:33:58.705Z,101787.00
2023-02-19T20:43:58.707Z,101791.00
2023-02-19T20:53:58.738Z,101800.00
2023-02-19T21:03:58.702Z,101812.00
2023-02-19T21:13:59.027Z,101816.00
2023-02-19T21:23:59.799Z,101814.00
2023-02-19T21:33:59.728Z,101820.00
2023-02-19T21:43:59.781Z,101822.00
2023-02-19T21:53:59.806Z,101841.00
2023-02-19T22:03:59.819Z,101833.00
2023-02-19T22:13:59.786Z,101822.00
2023-02-19T22:23:59.844Z,101841.00
2023-02-19T22:33:59.792Z,101845.00
2023-02-19T22:43:59.827Z,101841.00
2023-02-19T22:54:01.082Z,101843.00
2023-02-19T23:04:01.051Z,101839.00
2023-02-19T23:14:00.848Z,101843.00
2023-02-19T23:24:00.919Z,101835.00
2023-02-19T23:34:00.940Z,101820.00
2023-02-19T23:44:01.003Z,101810.00
2023-02-19T23:54:00.951Z,101806.00
